createdAt,value
2022-12-29T00:01:11.484Z,8.03
2022-12-29T00:03:39.654Z,7.40
2022-12-29T00:06:07.890Z,7.50
2022-12-29T00:08:41.725Z,8.20
2022-12-29T00:11:10.442Z,8.20
2022-12-29T00:13:58.111Z,8.10
2022-12-29T00:16:26.906Z,9.23
2022-12-29T00:18:55.023Z,8.87
2022-12-29T00:21:42.224Z,9.07
2022-12-29T00:24:32.296Z,8.90
2022-12-29T00:27:29.115Z,9.80
2022-12-29T00:30:16.405Z,9.40
2022-12-29T00:33:02.483Z,10.43
2022-12-29T00:35:32.621Z,10.30
2022-12-29T00:38:22.719Z,10.47
2022-12-29T00:41:08.281Z,10.73
2022-12-29T00:43:53.813Z,10.27
2022-12-29T00:46:23.244Z,11.50
2022-12-29T00:49:08.850Z,11.13
2022-12-29T00:51:36.875Z,11.03
2022-12-29T00:54:04.989Z,11.53
2022-12-29T00:56:33.001Z,11.40
2022-12-29T00:59:02.970Z,11.70
2022-12-29T01:01:32.509Z,11.67
2022-12-29T01:04:04.112Z,11.80
2022-12-29T01:06:33.620Z,11.73
2022-12-29T01:09:18.771Z,12.00
2022-12-29T01:11:46.792Z,11.70
2022-12-29T01:14:15.007Z,12.20
2022-12-29T01:16:44.664Z,11.27
2022-12-29T01:19:12.791Z,11.07
2022-12-29T01:21:40.748Z,10.97
2022-12-29T01:24:08.894Z,9.73
2022-12-29T01:26:36.910Z,10.20
2022-12-29T01:29:04.972Z,9.97
2022-12-29T01:31:33.012Z,10.50
2022-12-29T01:34:02.639Z,10.10
2022-12-29T01:36:31.071Z,10.27
2022-12-29T01:38:59.133Z,9.33
2022-12-29T01:41:27.816Z,8.87
2022-12-29T01:43:58.306Z,9.57
2022-12-29T01:46:29.978Z,9.43
2022-12-29T01:49:04.612Z,10.00
2022-12-29T01:51:34.983Z,10.27
2022-12-29T01:54:06.672Z,10.73
2022-12-29T01:56:35.756Z,10.50
2022-12-29T01:59:08.538Z,10.83
2022-12-29T02:01:37.018Z,11.03
2022-12-29T02:04:06.733Z,10.17
2022-12-29T02:06:40.250Z,11.13
2022-12-29T02:09:08.206Z,10.37
2022-12-29T02:11:38.412Z,10.60
2022-12-29T02:14:11.262Z,11.50
2022-12-29T02:16:53.760Z,11.10
2022-12-29T02:19:59.449Z,9.67
2022-12-29T02:22:34.323Z,9.93
2022-12-29T02:25:22.986Z,10.03
2022-12-29T02:28:08.001Z,10.13
2022-12-29T02:30:50.934Z,10.33
2022-12-29T02:33:30.818Z,9.90
2022-12-29T02:36:08.859Z,9.70
2022-12-29T02:38:50.991Z,9.63
2022-12-29T02:41:23.684Z,9.90
2022-12-29T02:43:58.879Z,9.87
2022-12-29T02:46:36.581Z,9.50
2022-12-29T02:49:13.121Z,10.00
2022-12-29T02:51:46.129Z,9.13
2022-12-29T02:54:31.824Z,8.67
2022-12-29T02:56:59.800Z,9.37
2022-12-29T02:59:28.048Z,9.13
2022-12-29T03:02:19.204Z,9.00
2022-12-29T03:05:11.795Z,8.60
2022-12-29T03:07:47.112Z,8.80
2022-12-29T03:10:27.148Z,8.70
2022-12-29T03:13:29.454Z,9.03
2022-12-29T03:16:04.371Z,8.47
2022-12-29T03:18:43.073Z,8.80
2022-12-29T03:21:16.265Z,9.13
2022-12-29T03:23:49.606Z,9.03
2022-12-29T03:26:19.863Z,9.33
2022-12-29T03:28:53.920Z,8.83
2022-12-29T03:31:23.867Z,8.37
2022-12-29T03:33:55.250Z,8.67
2022-12-29T03:36:29.912Z,8.07
2022-12-29T03:39:04.130Z,8.50
2022-12-29T03:41:34.972Z,8.23
2022-12-29T03:44:03.030Z,7.97
2022-12-29T03:46:31.185Z,8.10
2022-12-29T03:49:00.599Z,7.93
2022-12-29T03:51:28.568Z,8.43
2022-12-29T03:53:56.587Z,7.33
2022-12-29T03:56:24.628Z,7.90
2022-12-29T03:58:52.642Z,8.17
2022-12-29T04:01:20.698Z,9.00
2022-12-29T04:03:49.004Z,8.67
2022-12-29T04:06:18.404Z,8.00
2022-12-29T04:08:46.415Z,8.20
2022-12-29T04:11:14.446Z,8.63
2022-12-29T04:13:42.494Z,8.53
2022-12-29T04:16:10.543Z,8.80
2022-12-29T04:18:38.585Z,9.23
2022-12-29T04:21:06.703Z,9.47
2022-12-29T04:23:38.650Z,9.37
2022-12-29T04:26:08.538Z,9.23
2022-12-29T04:28:36.772Z,8.90
2022-12-29T04:31:05.450Z,9.80
2022-12-29T04:33:33.636Z,9.90
2022-12-29T04:36:02.034Z,10.20
2022-12-29T04:38:30.076Z,10.27
2022-12-29T04:41:01.599Z,9.50
2022-12-29T04:43:29.950Z,9.30
2022-12-29T04:45:58.206Z,9.10
2022-12-29T04:48:26.223Z,9.47
2022-12-29T04:50:54.245Z,9.37
2022-12-29T04:53:22.250Z,9.50
2022-12-29T04:55:51.605Z,9.43
2022-12-29T04:58:23.099Z,9.10
2022-12-29T05:00:51.924Z,9.27
2022-12-29T05:03:20.085Z,10.07
2022-12-29T05:05:48.385Z,9.47
2022-12-29T05:08:16.372Z,10.10
2022-12-29T05:10:46.929Z,9.07
2022-12-29T05:13:15.186Z,8.93
2022-12-29T05:15:49.835Z,8.50
2022-12-29T05:18:17.907Z,9.37
2022-12-29T05:20:46.510Z,9.17
2022-12-29T05:23:14.754Z,10.27
2022-12-29T05:25:42.826Z,9.03
2022-12-29T05:28:10.831Z,8.67
2022-12-29T05:30:38.812Z,9.13
2022-12-29T05:33:08.178Z,8.30
2022-12-29T05:35:36.178Z,9.10
2022-12-29T05:38:04.217Z,8.30
2022-12-29T05:40:32.170Z,7.83
2022-12-29T05:43:00.852Z,8.07
2022-12-29T05:45:28.834Z,8.40
2022-12-29T05:47:56.838Z,8.93
2022-12-29T05:50:26.203Z,8.93
2022-12-29T05:52:54.181Z,8.70
2022-12-29T05:55:22.360Z,8.53
2022-12-29T05:57:50.324Z,9.40
2022-12-29T06:00:18.756Z,9.83
2022-12-29T06:02:47.019Z,8.70
2022-12-29T06:05:15.324Z,8.97
2022-12-29T06:07:45.826Z,9.57
2022-12-29T06:10:14.042Z,9.77
2022-12-29T06:12:42.051Z,9.13
2022-12-29T06:15:10.837Z,9.00
2022-12-29T06:17:38.815Z,9.20
2022-12-29T06:20:07.898Z,9.43
2022-12-29T06:22:36.249Z,9.37
2022-12-29T06:25:06.462Z,9.73
2022-12-29T06:27:34.584Z,10.50
2022-12-29T06:30:02.667Z,9.07
2022-12-29T06:32:30.837Z,10.20
2022-12-29T06:34:58.799Z,9.33
2022-12-29T06:37:26.991Z,8.90
2022-12-29T06:39:55.027Z,9.63
2022-12-29T06:42:24.335Z,9.00
2022-12-29T06:44:53.318Z,9.07
2022-12-29T06:47:21.390Z,10.03
2022-12-29T06:49:49.414Z,10.57
2022-12-29T06:52:17.457Z,10.43
2022-12-29T06:54:45.539Z,9.83
2022-12-29T06:57:13.553Z,9.80
2022-12-29T06:59:43.505Z,9.37
2022-12-29T07:02:12.806Z,10.20
2022-12-29T07:04:40.982Z,10.10
2022-12-29T07:07:09.020Z,10.20
2022-12-29T07:09:36.999Z,9.63
2022-12-29T07:12:05.447Z,9.07
2022-12-29T07:14:39.071Z,9.50
2022-12-29T07:17:12.249Z,9.77
2022-12-29T07:19:40.305Z,8.77
2022-12-29T07:22:08.317Z,9.93
2022-12-29T07:24:36.314Z,9.63
2022-12-29T07:27:04.400Z,9.40
2022-12-29T07:29:32.380Z,10.13
2022-12-29T07:32:00.442Z,9.50
2022-12-29T07:34:30.454Z,9.13
2022-12-29T07:36:58.423Z,8.63
2022-12-29T07:39:26.425Z,9.80
2022-12-29T07:41:57.170Z,9.57
2022-12-29T07:44:29.151Z,9.40
2022-12-29T07:46:58.845Z,9.83
2022-12-29T07:49:27.270Z,9.53
2022-12-29T07:51:56.593Z,10.13
2022-12-29T07:54:24.742Z,9.87
2022-12-29T07:56:53.150Z,10.30
2022-12-29T07:59:21.272Z,10.40
2022-12-29T08:01:50.181Z,10.30
2022-12-29T08:04:18.314Z,10.77
2022-12-29T08:06:47.073Z,10.30
2022-12-29T08:09:21.897Z,9.97
2022-12-29T08:11:50.582Z,10.63
2022-12-29T08:14:19.269Z,10.37
2022-12-29T08:16:47.505Z,10.30
2022-12-29T08:19:16.331Z,10.10
2022-12-29T08:21:44.361Z,10.03
2022-12-29T08:24:12.382Z,10.43
2022-12-29T08:26:42.094Z,10.40
2022-12-29T08:29:10.069Z,10.73
2022-12-29T08:31:38.325Z,10.53
2022-12-29T08:34:06.827Z,10.53
2022-12-29T08:36:34.847Z,10.00
2022-12-29T08:39:02.953Z,10.30
2022-12-29T08:41:30.984Z,10.80
2022-12-29T08:44:00.361Z,10.47
2022-12-29T08:46:28.477Z,10.87
2022-12-29T08:48:56.539Z,11.20
2022-12-29T08:51:25.268Z,12.20
2022-12-29T08:53:53.975Z,12.60
2022-12-29T08:56:22.092Z,12.77
2022-12-29T08:58:50.100Z,12.80
2022-12-29T09:01:19.740Z,13.93
2022-12-29T09:06:40.276Z,12.70
2022-12-29T09:09:08.786Z,12.67
2022-12-29T09:11:36.886Z,11.67
2022-12-29T09:14:05.059Z,13.33
2022-12-29T09:16:34.864Z,12.97
2022-12-29T09:19:02.962Z,12.53
2022-12-29T09:21:31.079Z,12.73
2022-12-29T09:23:59.077Z,13.80
2022-12-29T09:26:27.154Z,12.90
2022-12-29T09:28:55.123Z,13.27
2022-12-29T09:31:23.236Z,12.40
2022-12-29T09:33:52.680Z,11.30
2022-12-29T09:36:20.680Z,11.43
2022-12-29T09:38:48.708Z,11.90
2022-12-29T09:41:24.211Z,11.13
2022-12-29T09:44:07.190Z,10.93
2022-12-29T09:46:37.375Z,11.97
2022-12-29T09:49:25.947Z,11.37
2022-12-29T09:51:57.163Z,11.67
2022-12-29T09:54:46.772Z,12.07
2022-12-29T09:57:25.427Z,11.53
2022-12-29T09:59:57.840Z,11.60
2022-12-29T10:02:38.954Z,11.57
2022-12-29T10:05:20.398Z,11.47
2022-12-29T10:07:57.443Z,11.13
2022-12-29T10:10:36.724Z,10.87
2022-12-29T10:13:20.946Z,11.23
2022-12-29T10:15:58.981Z,10.63
2022-12-29T10:18:42.926Z,11.20
2022-12-29T10:21:20.723Z,11.27
2022-12-29T10:23:52.535Z,11.60
2022-12-29T10:26:23.778Z,11.20
2022-12-29T10:28:55.566Z,11.03
2022-12-29T10:31:26.044Z,11.90
2022-12-29T10:33:59.561Z,11.67
2022-12-29T10:36:36.109Z,11.10
2022-12-29T10:39:13.325Z,11.93
2022-12-29T10:41:46.802Z,11.20
2022-12-29T10:44:19.455Z,11.07
2022-12-29T10:46:59.442Z,11.23
2022-12-29T10:49:28.766Z,10.43
2022-12-29T10:52:01.889Z,10.67
2022-12-29T10:54:36.023Z,10.90
2022-12-29T10:57:08.063Z,11.10
2022-12-29T10:59:38.948Z,11.03
2022-12-29T11:02:28.135Z,11.23
2022-12-29T11:05:04.161Z,11.77
2022-12-29T11:07:33.782Z,11.53
2022-12-29T11:10:20.495Z,10.97
2022-12-29T11:13:00.351Z,10.07
2022-12-29T11:15:28.643Z,10.00
2022-12-29T11:18:00.488Z,10.03
2022-12-29T11:20:32.043Z,9.97
2022-12-29T11:23:02.517Z,10.57
2022-12-29T11:25:30.488Z,10.20
2022-12-29T11:28:01.878Z,11.37
2022-12-29T11:30:32.183Z,10.80
2022-12-29T11:33:00.567Z,13.97
2022-12-29T11:35:37.836Z,12.13
2022-12-29T11:38:07.717Z,11.20
2022-12-29T11:40:41.306Z,12.37
2022-12-29T11:43:16.487Z,12.03
2022-12-29T11:45:48.790Z,12.43
2022-12-29T11:48:20.495Z,12.63
2022-12-29T11:50:53.979Z,14.07
2022-12-29T11:53:26.014Z,13.30
2022-12-29T11:55:57.435Z,13.70
2022-12-29T11:58:33.530Z,14.57
2022-12-29T12:01:05.171Z,13.87
2022-12-29T12:03:37.202Z,12.70
2022-12-29T12:06:06.240Z,14.80
2022-12-29T12:08:39.608Z,13.27
2022-12-29T12:11:13.412Z,13.13
2022-12-29T12:13:50.064Z,13.90
2022-12-29T12:16:21.523Z,14.60
2022-12-29T12:18:52.481Z,13.73
2022-12-29T12:21:30.035Z,13.00
2022-12-29T12:24:31.424Z,12.63
2022-12-29T12:27:04.482Z,14.00
2022-12-29T12:29:40.566Z,15.13
2022-12-29T12:32:17.311Z,12.47
2022-12-29T12:34:47.626Z,12.23
2022-12-29T12:37:44.662Z,11.77
2022-12-29T12:40:43.282Z,12.03
2022-12-29T12:43:31.538Z,15.73
2022-12-29T12:46:21.630Z,14.63
2022-12-29T12:49:17.380Z,15.27
2022-12-29T12:51:59.460Z,14.13
2022-12-29T12:54:58.980Z,13.33
2022-12-29T12:57:39.043Z,13.43
2022-12-29T13:00:12.856Z,12.90
2022-12-29T13:02:53.411Z,13.00
2022-12-29T13:05:48.804Z,12.97
2022-12-29T13:08:52.299Z,13.17
2022-12-29T13:11:27.093Z,14.37
2022-12-29T13:14:09.240Z,13.47
2022-12-29T13:16:45.988Z,13.07
2022-12-29T13:19:20.267Z,13.50
2022-12-29T13:22:05.648Z,13.47
2022-12-29T13:24:43.175Z,13.77
2022-12-29T13:27:18.240Z,12.83
2022-12-29T13:29:59.132Z,13.53
2022-12-29T13:32:39.845Z,13.90
2022-12-29T13:35:39.287Z,13.90
2022-12-29T13:38:14.190Z,13.47
2022-12-29T13:40:47.471Z,13.97
2022-12-29T13:43:17.730Z,13.70
2022-12-29T13:45:52.390Z,13.57
2022-12-29T13:48:25.342Z,14.73
2022-12-29T13:50:57.363Z,13.07
2022-12-29T13:53:32.629Z,12.63
2022-12-29T13:56:10.187Z,12.60
2022-12-29T13:58:46.950Z,12.90
2022-12-29T14:01:22.719Z,13.60
2022-12-29T14:03:52.762Z,12.80
2022-12-29T14:06:26.126Z,12.30
2022-12-29T14:08:56.616Z,13.10
2022-12-29T14:11:30.652Z,12.13
2022-12-29T14:13:58.901Z,11.17
2022-12-29T14:16:31.487Z,11.80
2022-12-29T14:19:07.770Z,11.87
2022-12-29T14:21:36.202Z,11.03
2022-12-29T14:24:28.963Z,11.40
2022-12-29T14:26:56.972Z,11.83
2022-12-29T14:29:45.485Z,12.03
2022-12-29T14:32:42.934Z,12.07
2022-12-29T14:35:40.800Z,12.03
2022-12-29T14:38:17.034Z,12.87
2022-12-29T14:40:45.483Z,12.50
2022-12-29T14:43:22.904Z,13.63
2022-12-29T14:46:00.020Z,12.57
2022-12-29T14:48:40.280Z,12.93
2022-12-29T14:51:23.277Z,12.80
2022-12-29T14:53:52.839Z,12.37
2022-12-29T14:56:26.108Z,12.70
2022-12-29T14:58:56.447Z,11.63
2022-12-29T15:01:37.572Z,12.50
2022-12-29T15:04:16.959Z,11.80
2022-12-29T15:06:47.029Z,12.47
2022-12-29T15:09:26.506Z,13.40
2022-12-29T15:11:57.053Z,11.93
2022-12-29T15:14:34.062Z,11.40
2022-12-29T15:17:02.436Z,11.80
2022-12-29T15:19:31.928Z,12.03
2022-12-29T15:21:59.920Z,11.97
2022-12-29T15:24:27.998Z,12.10
2022-12-29T15:26:56.996Z,12.60
2022-12-29T15:29:38.375Z,13.10
2022-12-29T15:32:22.912Z,13.60
2022-12-29T15:34:54.190Z,13.50
2022-12-29T15:37:24.749Z,13.50
2022-12-29T15:39:53.599Z,12.90
2022-12-29T15:42:34.515Z,13.20
2022-12-29T15:45:11.140Z,13.30
2022-12-29T15:47:40.663Z,12.70
2022-12-29T15:50:17.593Z,12.20
2022-12-29T15:52:45.630Z,12.87
2022-12-29T15:55:23.639Z,11.97
2022-12-29T15:57:51.608Z,12.77
2022-12-29T16:00:26.007Z,12.63
2022-12-29T16:02:55.847Z,13.97
2022-12-29T16:05:25.862Z,13.50
2022-12-29T16:07:56.485Z,14.30
2022-12-29T16:10:30.196Z,14.33
2022-12-29T16:13:07.947Z,13.87
2022-12-29T16:15:36.307Z,15.00
2022-12-29T16:18:04.434Z,12.27
2022-12-29T16:20:42.536Z,14.13
2022-12-29T16:23:20.591Z,13.80
2022-12-29T16:25:49.393Z,13.97
2022-12-29T16:28:21.117Z,14.63
2022-12-29T16:30:49.351Z,13.97
2022-12-29T16:33:47.418Z,13.27
2022-12-29T16:36:35.110Z,13.33
2022-12-29T16:39:27.424Z,13.50
2022-12-29T16:41:56.207Z,14.63
2022-12-29T16:44:27.485Z,13.50
2022-12-29T16:47:18.723Z,13.27
2022-12-29T16:49:54.537Z,13.53
2022-12-29T16:52:27.519Z,13.47
2022-12-29T16:54:58.221Z,12.77
2022-12-29T16:57:29.802Z,14.63
2022-12-29T17:00:01.324Z,14.37
2022-12-29T17:02:31.753Z,14.40
2022-12-29T17:04:59.879Z,14.60
2022-12-29T17:07:30.381Z,13.90
2022-12-29T17:09:58.370Z,13.67
2022-12-29T17:12:28.885Z,14.57
2022-12-29T17:14:59.601Z,14.33
2022-12-29T17:17:33.876Z,14.90
2022-12-29T17:20:05.407Z,15.30
2022-12-29T17:22:35.136Z,16.40
2022-12-29T17:25:03.844Z,15.53
2022-12-29T17:27:37.298Z,16.87
2022-12-29T17:30:11.359Z,17.07
2022-12-29T17:32:39.625Z,16.53
2022-12-29T17:35:08.220Z,17.70
2022-12-29T17:37:38.990Z,17.93
2022-12-29T17:40:09.682Z,19.90
2022-12-29T17:42:42.287Z,18.80
2022-12-29T17:45:16.325Z,19.30
2022-12-29T17:47:44.573Z,19.87
2022-12-29T17:50:14.889Z,22.53
2022-12-29T17:52:45.119Z,22.30
2022-12-29T17:55:18.241Z,22.20
2022-12-29T17:57:46.498Z,25.07
2022-12-29T18:00:19.255Z,24.57
2022-12-29T18:02:48.053Z,25.93
2022-12-29T18:05:21.209Z,24.63
2022-12-29T18:07:52.231Z,25.53
2022-12-29T18:10:20.296Z,24.93
2022-12-29T18:12:50.570Z,26.70
2022-12-29T18:15:20.904Z,26.50
2022-12-29T18:17:49.685Z,27.70
2022-12-29T18:20:18.100Z,29.30
2022-12-29T18:22:46.146Z,30.90
2022-12-29T18:25:23.627Z,27.47
2022-12-29T18:27:51.852Z,22.63
2022-12-29T18:30:20.340Z,23.43
2022-12-29T18:32:48.368Z,24.37
2022-12-29T18:35:21.334Z,22.67
2022-12-29T18:37:49.298Z,22.37
2022-12-29T18:40:17.341Z,21.97
2022-12-29T18:42:46.759Z,21.33
2022-12-29T18:45:18.662Z,20.27
2022-12-29T18:47:46.752Z,21.00
2022-12-29T18:50:15.315Z,20.20
2022-12-29T18:52:44.020Z,21.83
2022-12-29T18:55:14.636Z,21.47
2022-12-29T18:57:42.887Z,20.23
2022-12-29T19:00:14.798Z,19.77
2022-12-29T19:02:42.854Z,18.77
2022-12-29T19:05:21.145Z,17.07
2022-12-29T19:07:49.164Z,17.70
2022-12-29T19:10:17.835Z,16.83
2022-12-29T19:12:45.993Z,16.60
2022-12-29T19:15:22.741Z,17.20
2022-12-29T19:18:15.995Z,16.83
2022-12-29T19:20:41.608Z,17.97
2022-12-29T19:23:11.878Z,16.93
2022-12-29T19:25:40.836Z,16.80
2022-12-29T19:28:14.113Z,17.23
2022-12-29T19:30:45.289Z,18.70
2022-12-29T19:33:15.474Z,18.17
2022-12-29T19:35:44.150Z,17.33
2022-12-29T19:38:13.523Z,17.87
2022-12-29T19:40:44.665Z,18.13
2022-12-29T19:43:13.264Z,20.00
2022-12-29T19:45:43.715Z,22.63
2022-12-29T19:48:15.898Z,21.80
2022-12-29T19:50:44.584Z,22.00
2022-12-29T19:53:12.857Z,19.63
2022-12-29T19:55:43.410Z,20.40
2022-12-29T19:58:11.696Z,19.90
2022-12-29T20:00:41.007Z,20.00
2022-12-29T20:03:10.789Z,17.20
2022-12-29T20:05:39.614Z,15.80
2022-12-29T20:08:07.885Z,15.13
2022-12-29T20:10:35.907Z,15.20
2022-12-29T20:13:04.626Z,15.07
2022-12-29T20:15:32.721Z,15.47
2022-12-29T20:18:16.002Z,14.40
2022-12-29T20:20:45.477Z,15.57
2022-12-29T20:23:13.476Z,15.37
2022-12-29T20:25:45.162Z,14.80
2022-12-29T20:28:14.312Z,14.90
2022-12-29T20:30:42.372Z,14.50
2022-12-29T20:33:10.403Z,15.33
2022-12-29T20:35:38.471Z,14.83
2022-12-29T20:38:08.004Z,15.03
2022-12-29T20:40:44.192Z,14.93
2022-12-29T20:43:15.761Z,15.33
2022-12-29T20:45:43.932Z,14.27
2022-12-29T20:48:12.066Z,15.87
2022-12-29T20:50:40.351Z,15.40
2022-12-29T20:53:09.755Z,15.23
2022-12-29T20:55:40.860Z,15.40
2022-12-29T20:58:25.389Z,15.37
2022-12-29T21:00:53.993Z,14.70
2022-12-29T21:03:22.219Z,16.73
2022-12-29T21:05:50.254Z,15.43
2022-12-29T21:08:21.136Z,16.23
2022-12-29T21:10:50.471Z,16.50
2022-12-29T21:13:18.912Z,15.17
2022-12-29T21:15:47.392Z,15.50
2022-12-29T21:18:15.617Z,15.30
2022-12-29T21:20:43.606Z,15.43
2022-12-29T21:23:11.651Z,14.40
2022-12-29T21:25:45.176Z,14.53
2022-12-29T21:28:13.271Z,14.83
2022-12-29T21:30:41.915Z,15.40
2022-12-29T21:33:10.052Z,15.90
2022-12-29T21:35:38.939Z,15.00
2022-12-29T21:38:07.225Z,14.67
2022-12-29T21:40:36.911Z,15.63
2022-12-29T21:43:06.499Z,16.00
2022-12-29T21:45:34.333Z,16.13
2022-12-29T21:48:23.744Z,15.43
2022-12-29T21:51:11.579Z,14.90
2022-12-29T21:53:41.065Z,15.67
2022-12-29T21:56:11.046Z,16.60
2022-12-29T21:58:59.538Z,16.27
2022-12-29T22:01:46.414Z,15.63
2022-12-29T22:04:32.800Z,14.93
2022-12-29T22:07:18.368Z,16.37
2022-12-29T22:10:03.992Z,15.07
2022-12-29T22:12:50.095Z,16.77
2022-12-29T22:15:19.943Z,17.20
2022-12-29T22:17:49.262Z,15.43
2022-12-29T22:20:17.661Z,15.87
2022-12-29T22:22:45.709Z,16.00
2022-12-29T22:25:14.142Z,15.97
2022-12-29T22:27:42.560Z,16.10
2022-12-29T22:30:11.887Z,16.80
2022-12-29T22:32:41.291Z,16.80
2022-12-29T22:35:10.690Z,16.03
2022-12-29T22:37:40.713Z,16.40
2022-12-29T22:40:11.051Z,15.10
2022-12-29T22:42:39.670Z,15.90
2022-12-29T22:45:08.767Z,15.60
2022-12-29T22:47:36.936Z,16.33
2022-12-29T22:50:07.012Z,14.87
2022-12-29T22:52:35.030Z,15.30
2022-12-29T22:55:06.741Z,15.17
2022-12-29T22:57:35.432Z,15.67
2022-12-29T23:00:04.280Z,15.10
2022-12-29T23:02:32.407Z,15.17
2022-12-29T23:05:03.538Z,15.67
2022-12-29T23:07:34.674Z,15.73
2022-12-29T23:10:02.849Z,15.53
2022-12-29T23:12:31.609Z,15.10
2022-12-29T23:14:59.772Z,14.87
2022-12-29T23:17:28.004Z,16.23
2022-12-29T23:19:55.979Z,14.93
2022-12-29T23:22:25.089Z,15.93
2022-12-29T23:24:54.649Z,15.47
2022-12-29T23:27:22.673Z,15.50
2022-12-29T23:29:50.737Z,15.07
2022-12-29T23:32:18.750Z,14.50
2022-12-29T23:34:46.749Z,14.77
2022-12-29T23:37:14.738Z,14.80
2022-12-29T23:39:42.732Z,14.97
2022-12-29T23:42:12.449Z,15.03
2022-12-29T23:44:40.507Z,14.67
2022-12-29T23:47:08.559Z,14.83
2022-12-29T23:49:36.599Z,14.30
2022-12-29T23:52:04.560Z,14.50
2022-12-29T23:54:32.554Z,14.63
2022-12-29T23:57:00.549Z,14.77
2022-12-29T23:59:30.116Z,14.40
